sensor_id;sensor_type;location;lat;lon;timestamp;P1;durP1;ratioP1;P2;durP2;ratioP2
39968;SDS011;25648;47.808;19.004;2022-09-27T00:01:08;20.52;;;15.32;;
39968;SDS011;25648;47.808;19.004;2022-09-27T00:03:35;24.80;;;17.02;;
39968;SDS011;25648;47.808;19.004;2022-09-27T00:06:03;25.05;;;16.77;;
39968;SDS011;25648;47.808;19.004;2022-09-27T00:08:35;25.15;;;16.38;;
39968;SDS011;25648;47.808;19.004;2022-09-27T00:11:05;28.52;;;16.52;;
39968;SDS011;25648;47.808;19.004;2022-09-27T00:13:33;21.85;;;14.98;;
39968;SDS011;25648;47.808;19.004;2022-09-27T00:16:00;28.25;;;15.73;;
39968;SDS011;25648;47.808;19.004;2022-09-27T00:18:29;33.42;;;17.35;;
39968;SDS011;25648;47.808;19.004;2022-09-27T00:20:55;36.20;;;17.75;;
39968;SDS011;25648;47.808;19.004;2022-09-27T00:23:27;29.83;;;17.10;;
39968;SDS011;25648;47.808;19.004;2022-09-27T00:25:56;29.85;;;16.63;;
39968;SDS011;25648;47.808;19.004;2022-09-27T00:28:23;28.77;;;19.10;;
39968;SDS011;25648;47.808;19.004;2022-09-27T00:30:50;16.17;;;12.98;;
39968;SDS011;25648;47.808;19.004;2022-09-27T00:33:17;15.48;;;12.50;;
39968;SDS011;25648;47.808;19.004;2022-09-27T00:35:43;20.90;;;15.35;;
39968;SDS011;25648;47.808;19.004;2022-09-27T00:38:09;21.73;;;15.30;;
39968;SDS011;25648;47.808;19.004;2022-09-27T00:40:35;22.15;;;15.77;;
39968;SDS011;25648;47.808;19.004;2022-09-27T00:43:01;21.02;;;16.27;;
39968;SDS011;25648;47.808;19.004;2022-09-27T00:45:27;18.33;;;13.57;;
39968;SDS011;25648;47.808;19.004;2022-09-27T00:48:00;21.52;;;15.13;;
39968;SDS011;25648;47.808;19.004;2022-09-27T00:50:34;16.90;;;13.95;;
39968;SDS011;25648;47.808;19.004;2022-09-27T00:53:07;16.73;;;12.52;;
39968;SDS011;25648;47.808;19.004;2022-09-27T00:55:42;16.27;;;13.82;;
39968;SDS011;25648;47.808;19.004;2022-09-27T00:58:12;17.20;;;13.80;;
39968;SDS011;25648;47.808;19.004;2022-09-27T01:00:42;23.20;;;16.23;;
39968;SDS011;25648;47.808;19.004;2022-09-27T01:03:12;18.23;;;14.32;;
39968;SDS011;25648;47.808;19.004;2022-09-27T01:05:46;18.27;;;14.20;;
39968;SDS011;25648;47.808;19.004;2022-09-27T01:08:12;18.98;;;14.23;;
39968;SDS011;25648;47.808;19.004;2022-09-27T01:10:40;16.30;;;13.45;;
39968;SDS011;25648;47.808;19.004;2022-09-27T01:13:20;14.23;;;11.75;;
39968;SDS011;25648;47.808;19.004;2022-09-27T01:18:31;17.05;;;13.15;;
39968;SDS011;25648;47.808;19.004;2022-09-27T01:21:12;20.75;;;15.25;;
39968;SDS011;25648;47.808;19.004;2022-09-27T01:30:10;18.33;;;13.48;;
39968;SDS011;25648;47.808;19.004;2022-09-27T01:35:57;19.83;;;14.65;;
39968;SDS011;25648;47.808;19.004;2022-09-27T01:44:42;21.50;;;15.98;;
39968;SDS011;25648;47.808;19.004;2022-09-27T01:47:28;17.58;;;13.70;;
39968;SDS011;25648;47.808;19.004;2022-09-27T01:50:10;14.27;;;10.80;;
39968;SDS011;25648;47.808;19.004;2022-09-27T01:53:11;16.13;;;10.48;;
39968;SDS011;25648;47.808;19.004;2022-09-27T01:55:42;14.60;;;10.73;;
39968;SDS011;25648;47.808;19.004;2022-09-27T01:58:15;16.98;;;12.05;;
39968;SDS011;25648;47.808;19.004;2022-09-27T02:00:46;17.85;;;12.43;;
39968;SDS011;25648;47.808;19.004;2022-09-27T02:03:16;21.85;;;12.93;;
39968;SDS011;25648;47.808;19.004;2022-09-27T02:08:17;18.08;;;11.77;;
39968;SDS011;25648;47.808;19.004;2022-09-27T02:11:07;16.50;;;12.88;;
39968;SDS011;25648;47.808;19.004;2022-09-27T02:13:46;19.80;;;12.10;;
39968;SDS011;25648;47.808;19.004;2022-09-27T02:16:22;16.15;;;12.18;;
39968;SDS011;25648;47.808;19.004;2022-09-27T02:19:01;11.40;;;9.52;;
39968;SDS011;25648;47.808;19.004;2022-09-27T02:21:44;14.20;;;12.20;;
39968;SDS011;25648;47.808;19.004;2022-09-27T02:24:41;14.45;;;10.70;;
39968;SDS011;25648;47.808;19.004;2022-09-27T02:27:23;14.45;;;9.70;;
39968;SDS011;25648;47.808;19.004;2022-09-27T02:29:58;13.93;;;9.90;;
39968;SDS011;25648;47.808;19.004;2022-09-27T02:32:29;13.43;;;10.95;;
39968;SDS011;25648;47.808;19.004;2022-09-27T02:34:57;13.98;;;11.63;;
39968;SDS011;25648;47.808;19.004;2022-09-27T02:37:25;18.83;;;12.38;;
39968;SDS011;25648;47.808;19.004;2022-09-27T02:39:51;13.85;;;10.50;;
39968;SDS011;25648;47.808;19.004;2022-09-27T02:42:17;17.83;;;12.27;;
39968;SDS011;25648;47.808;19.004;2022-09-27T02:44:43;16.33;;;11.82;;
39968;SDS011;25648;47.808;19.004;2022-09-27T02:55:18;17.63;;;12.50;;
39968;SDS011;25648;47.808;19.004;2022-09-27T03:06:41;19.50;;;12.82;;
39968;SDS011;25648;47.808;19.004;2022-09-27T03:09:17;19.23;;;13.45;;
39968;SDS011;25648;47.808;19.004;2022-09-27T03:11:44;16.00;;;12.25;;
39968;SDS011;25648;47.808;19.004;2022-09-27T03:14:09;14.95;;;11.85;;
39968;SDS011;25648;47.808;19.004;2022-09-27T03:16:35;17.80;;;12.55;;
39968;SDS011;25648;47.808;19.004;2022-09-27T03:19:01;18.55;;;13.73;;
39968;SDS011;25648;47.808;19.004;2022-09-27T03:21:27;20.73;;;13.13;;
39968;SDS011;25648;47.808;19.004;2022-09-27T03:23:53;18.48;;;12.77;;
39968;SDS011;25648;47.808;19.004;2022-09-27T03:26:18;19.52;;;14.05;;
39968;SDS011;25648;47.808;19.004;2022-09-27T03:28:45;19.83;;;13.93;;
39968;SDS011;25648;47.808;19.004;2022-09-27T03:31:10;27.48;;;14.32;;
39968;SDS011;25648;47.808;19.004;2022-09-27T03:33:36;21.63;;;15.20;;
39968;SDS011;25648;47.808;19.004;2022-09-27T03:36:02;19.30;;;14.68;;
39968;SDS011;25648;47.808;19.004;2022-09-27T03:38:28;23.08;;;15.50;;
39968;SDS011;25648;47.808;19.004;2022-09-27T03:40:54;27.33;;;17.00;;
39968;SDS011;25648;47.808;19.004;2022-09-27T03:43:19;26.50;;;16.55;;
39968;SDS011;25648;47.808;19.004;2022-09-27T03:45:45;29.52;;;18.55;;
39968;SDS011;25648;47.808;19.004;2022-09-27T03:48:11;19.98;;;14.88;;
39968;SDS011;25648;47.808;19.004;2022-09-27T03:50:38;25.13;;;16.95;;
39968;SDS011;25648;47.808;19.004;2022-09-27T03:53:03;21.17;;;14.55;;
39968;SDS011;25648;47.808;19.004;2022-09-27T03:55:30;25.90;;;16.17;;
39968;SDS011;25648;47.808;19.004;2022-09-27T03:57:55;31.73;;;17.95;;
39968;SDS011;25648;47.808;19.004;2022-09-27T04:00:21;24.52;;;20.08;;
39968;SDS011;25648;47.808;19.004;2022-09-27T04:02:48;25.95;;;16.38;;
39968;SDS011;25648;47.808;19.004;2022-09-27T04:05:14;24.02;;;16.70;;
39968;SDS011;25648;47.808;19.004;2022-09-27T04:07:44;28.52;;;18.13;;
39968;SDS011;25648;47.808;19.004;2022-09-27T04:10:12;35.38;;;20.73;;
39968;SDS011;25648;47.808;19.004;2022-09-27T04:15:10;45.78;;;22.92;;
39968;SDS011;25648;47.808;19.004;2022-09-27T04:17:36;50.05;;;23.88;;
39968;SDS011;25648;47.808;19.004;2022-09-27T04:20:02;44.00;;;21.90;;
39968;SDS011;25648;47.808;19.004;2022-09-27T04:22:28;38.67;;;19.90;;
39968;SDS011;25648;47.808;19.004;2022-09-27T04:24:54;28.60;;;17.60;;
39968;SDS011;25648;47.808;19.004;2022-09-27T04:27:20;27.77;;;17.25;;
39968;SDS011;25648;47.808;19.004;2022-09-27T04:29:46;32.55;;;18.38;;
39968;SDS011;25648;47.808;19.004;2022-09-27T04:32:13;38.13;;;20.48;;
39968;SDS011;25648;47.808;19.004;2022-09-27T04:34:39;40.22;;;21.83;;
39968;SDS011;25648;47.808;19.004;2022-09-27T04:37:24;72.13;;;29.50;;
39968;SDS011;25648;47.808;19.004;2022-09-27T04:39:51;59.00;;;26.95;;
39968;SDS011;25648;47.808;19.004;2022-09-27T04:42:16;63.75;;;28.25;;
39968;SDS011;25648;47.808;19.004;2022-09-27T04:44:42;51.83;;;25.92;;
39968;SDS011;25648;47.808;19.004;2022-09-27T04:47:09;106.03;;;33.88;;
39968;SDS011;25648;47.808;19.004;2022-09-27T04:49:34;62.15;;;29.20;;
39968;SDS011;25648;47.808;19.004;2022-09-27T04:52:00;60.55;;;29.98;;
39968;SDS011;25648;47.808;19.004;2022-09-27T04:54:26;74.88;;;28.13;;
39968;SDS011;25648;47.808;19.004;2022-09-27T04:56:53;62.17;;;28.27;;
39968;SDS011;25648;47.808;19.004;2022-09-27T04:59:19;62.83;;;26.42;;
39968;SDS011;25648;47.808;19.004;2022-09-27T05:01:45;61.72;;;30.73;;
39968;SDS011;25648;47.808;19.004;2022-09-27T05:04:11;79.28;;;33.63;;
39968;SDS011;25648;47.808;19.004;2022-09-27T05:06:37;56.50;;;31.00;;
39968;SDS011;25648;47.808;19.004;2022-09-27T05:09:02;82.78;;;34.53;;
39968;SDS011;25648;47.808;19.004;2022-09-27T05:11:28;70.25;;;31.73;;
39968;SDS011;25648;47.808;19.004;2022-09-27T05:13:54;69.10;;;32.92;;
39968;SDS011;25648;47.808;19.004;2022-09-27T05:16:19;58.92;;;31.25;;
39968;SDS011;25648;47.808;19.004;2022-09-27T05:18:45;76.82;;;34.42;;
39968;SDS011;25648;47.808;19.004;2022-09-27T05:21:11;93.75;;;34.95;;
39968;SDS011;25648;47.808;19.004;2022-09-27T05:23:37;86.38;;;36.42;;
39968;SDS011;25648;47.808;19.004;2022-09-27T05:26:04;89.05;;;36.35;;
39968;SDS011;25648;47.808;19.004;2022-09-27T05:28:30;54.25;;;31.13;;
39968;SDS011;25648;47.808;19.004;2022-09-27T05:30:56;59.53;;;32.50;;
39968;SDS011;25648;47.808;19.004;2022-09-27T05:33:22;89.30;;;35.78;;
39968;SDS011;25648;47.808;19.004;2022-09-27T05:35:52;80.15;;;34.88;;
39968;SDS011;25648;47.808;19.004;2022-09-27T05:38:22;69.10;;;29.85;;
39968;SDS011;25648;47.808;19.004;2022-09-27T05:40:49;47.75;;;27.90;;
39968;SDS011;25648;47.808;19.004;2022-09-27T05:43:16;50.88;;;25.52;;
39968;SDS011;25648;47.808;19.004;2022-09-27T05:45:42;39.97;;;22.83;;
39968;SDS011;25648;47.808;19.004;2022-09-27T05:48:08;36.25;;;21.58;;
39968;SDS011;25648;47.808;19.004;2022-09-27T05:50:36;43.70;;;24.40;;
39968;SDS011;25648;47.808;19.004;2022-09-27T05:53:02;38.63;;;23.33;;
39968;SDS011;25648;47.808;19.004;2022-09-27T05:55:28;35.47;;;23.25;;
39968;SDS011;25648;47.808;19.004;2022-09-27T06:00:23;48.45;;;27.50;;
39968;SDS011;25648;47.808;19.004;2022-09-27T06:02:56;47.70;;;28.77;;
39968;SDS011;25648;47.808;19.004;2022-09-27T06:05:24;53.42;;;29.23;;
39968;SDS011;25648;47.808;19.004;2022-09-27T06:07:51;47.38;;;27.80;;
39968;SDS011;25648;47.808;19.004;2022-09-27T06:12:47;51.83;;;29.38;;
39968;SDS011;25648;47.808;19.004;2022-09-27T06:15:14;54.85;;;29.77;;
39968;SDS011;25648;47.808;19.004;2022-09-27T06:17:40;61.20;;;31.10;;
39968;SDS011;25648;47.808;19.004;2022-09-27T06:20:06;45.22;;;26.65;;
39968;SDS011;25648;47.808;19.004;2022-09-27T06:22:33;47.95;;;27.33;;
39968;SDS011;25648;47.808;19.004;2022-09-27T06:25:00;57.35;;;29.88;;
39968;SDS011;25648;47.808;19.004;2022-09-27T06:27:28;49.33;;;27.23;;
39968;SDS011;25648;47.808;19.004;2022-09-27T06:29:54;55.47;;;30.25;;
39968;SDS011;25648;47.808;19.004;2022-09-27T06:32:20;42.20;;;25.92;;
39968;SDS011;25648;47.808;19.004;2022-09-27T06:34:49;41.42;;;27.02;;
39968;SDS011;25648;47.808;19.004;2022-09-27T06:37:14;47.22;;;27.55;;
39968;SDS011;25648;47.808;19.004;2022-09-27T06:39:40;45.80;;;25.38;;
39968;SDS011;25648;47.808;19.004;2022-09-27T06:42:06;43.03;;;25.17;;
39968;SDS011;25648;47.808;19.004;2022-09-27T06:44:32;47.22;;;26.15;;
39968;SDS011;25648;47.808;19.004;2022-09-27T06:46:58;43.53;;;25.50;;
39968;SDS011;25648;47.808;19.004;2022-09-27T06:49:24;44.70;;;24.88;;
39968;SDS011;25648;47.808;19.004;2022-09-27T06:51:50;39.25;;;25.23;;
39968;SDS011;25648;47.808;19.004;2022-09-27T06:54:16;39.25;;;24.90;;
39968;SDS011;25648;47.808;19.004;2022-09-27T06:56:45;46.25;;;24.98;;
39968;SDS011;25648;47.808;19.004;2022-09-27T06:59:12;56.17;;;28.25;;
39968;SDS011;25648;47.808;19.004;2022-09-27T07:01:56;44.60;;;26.85;;
39968;SDS011;25648;47.808;19.004;2022-09-27T07:04:22;48.40;;;29.63;;
39968;SDS011;25648;47.808;19.004;2022-09-27T07:06:49;48.03;;;27.20;;
39968;SDS011;25648;47.808;19.004;2022-09-27T07:09:21;66.80;;;34.75;;
39968;SDS011;25648;47.808;19.004;2022-09-27T07:11:47;54.40;;;31.05;;
39968;SDS011;25648;47.808;19.004;2022-09-27T07:14:13;45.45;;;29.23;;
39968;SDS011;25648;47.808;19.004;2022-09-27T07:16:40;42.78;;;26.52;;
39968;SDS011;25648;47.808;19.004;2022-09-27T07:19:06;43.53;;;27.45;;
39968;SDS011;25648;47.808;19.004;2022-09-27T07:21:33;38.97;;;24.20;;
39968;SDS011;25648;47.808;19.004;2022-09-27T07:23:58;32.47;;;22.23;;
39968;SDS011;25648;47.808;19.004;2022-09-27T07:26:24;34.58;;;22.52;;
39968;SDS011;25648;47.808;19.004;2022-09-27T07:28:50;33.70;;;22.52;;
39968;SDS011;25648;47.808;19.004;2022-09-27T07:31:17;36.85;;;23.40;;
39968;SDS011;25648;47.808;19.004;2022-09-27T07:33:43;37.88;;;25.55;;
39968;SDS011;25648;47.808;19.004;2022-09-27T07:36:09;42.35;;;26.83;;
39968;SDS011;25648;47.808;19.004;2022-09-27T07:38:35;35.70;;;24.25;;
39968;SDS011;25648;47.808;19.004;2022-09-27T07:41:08;34.65;;;23.20;;
39968;SDS011;25648;47.808;19.004;2022-09-27T07:43:36;35.30;;;23.50;;
39968;SDS011;25648;47.808;19.004;2022-09-27T07:46:02;34.17;;;23.45;;
39968;SDS011;25648;47.808;19.004;2022-09-27T07:48:27;35.97;;;25.02;;
39968;SDS011;25648;47.808;19.004;2022-09-27T07:50:53;35.58;;;23.13;;
39968;SDS011;25648;47.808;19.004;2022-09-27T07:53:19;38.53;;;24.05;;
39968;SDS011;25648;47.808;19.004;2022-09-27T07:55:48;37.33;;;24.50;;
39968;SDS011;25648;47.808;19.004;2022-09-27T07:58:18;37.92;;;24.02;;
39968;SDS011;25648;47.808;19.004;2022-09-27T08:00:45;36.97;;;24.30;;
39968;SDS011;25648;47.808;19.004;2022-09-27T08:03:12;38.03;;;24.42;;
39968;SDS011;25648;47.808;19.004;2022-09-27T08:05:40;34.78;;;22.88;;
39968;SDS011;25648;47.808;19.004;2022-09-27T08:08:06;38.47;;;24.63;;
39968;SDS011;25648;47.808;19.004;2022-09-27T08:10:32;39.53;;;25.95;;
39968;SDS011;25648;47.808;19.004;2022-09-27T08:13:02;41.05;;;25.40;;
39968;SDS011;25648;47.808;19.004;2022-09-27T08:15:32;41.05;;;25.27;;
39968;SDS011;25648;47.808;19.004;2022-09-27T08:18:00;41.08;;;26.88;;
39968;SDS011;25648;47.808;19.004;2022-09-27T08:20:25;43.50;;;26.70;;
39968;SDS011;25648;47.808;19.004;2022-09-27T08:22:51;44.03;;;26.35;;
39968;SDS011;25648;47.808;19.004;2022-09-27T08:25:17;38.38;;;25.08;;
39968;SDS011;25648;47.808;19.004;2022-09-27T08:27:43;39.92;;;24.85;;
39968;SDS011;25648;47.808;19.004;2022-09-27T08:30:18;37.63;;;24.55;;
39968;SDS011;25648;47.808;19.004;2022-09-27T08:32:44;38.00;;;24.85;;
39968;SDS011;25648;47.808;19.004;2022-09-27T08:35:09;36.25;;;23.85;;
39968;SDS011;25648;47.808;19.004;2022-09-27T08:37:39;34.08;;;22.65;;
39968;SDS011;25648;47.808;19.004;2022-09-27T08:40:05;32.65;;;23.58;;
39968;SDS011;25648;47.808;19.004;2022-09-27T08:42:37;35.88;;;24.27;;
39968;SDS011;25648;47.808;19.004;2022-09-27T08:47:46;34.10;;;23.90;;
39968;SDS011;25648;47.808;19.004;2022-09-27T08:55:46;29.17;;;21.80;;
39968;SDS011;25648;47.808;19.004;2022-09-27T08:58:24;37.15;;;25.13;;
39968;SDS011;25648;47.808;19.004;2022-09-27T09:00:52;32.50;;;23.25;;
39968;SDS011;25648;47.808;19.004;2022-09-27T09:03:22;42.00;;;25.83;;
39968;SDS011;25648;47.808;19.004;2022-09-27T09:06:04;30.35;;;22.48;;
39968;SDS011;25648;47.808;19.004;2022-09-27T09:08:41;36.00;;;24.67;;
39968;SDS011;25648;47.808;19.004;2022-09-27T09:14:33;44.33;;;25.95;;
39968;SDS011;25648;47.808;19.004;2022-09-27T09:28:51;28.23;;;21.80;;
39968;SDS011;25648;47.808;19.004;2022-09-27T09:31:41;28.42;;;21.02;;
39968;SDS011;25648;47.808;19.004;2022-09-27T09:34:25;27.48;;;20.52;;
39968;SDS011;25648;47.808;19.004;2022-09-27T09:47:36;31.02;;;23.05;;
39968;SDS011;25648;47.808;19.004;2022-09-27T09:50:16;27.27;;;21.75;;
39968;SDS011;25648;47.808;19.004;2022-09-27T09:52:43;29.52;;;21.17;;
39968;SDS011;25648;47.808;19.004;2022-09-27T09:55:20;30.55;;;21.17;;
39968;SDS011;25648;47.808;19.004;2022-09-27T09:57:52;28.52;;;21.50;;
39968;SDS011;25648;47.808;19.004;2022-09-27T10:00:43;31.90;;;23.55;;
39968;SDS011;25648;47.808;19.004;2022-09-27T10:03:11;44.58;;;26.77;;
39968;SDS011;25648;47.808;19.004;2022-09-27T10:05:36;30.77;;;22.92;;
39968;SDS011;25648;47.808;19.004;2022-09-27T10:08:03;31.05;;;20.33;;
39968;SDS011;25648;47.808;19.004;2022-09-27T10:10:36;41.08;;;26.92;;
39968;SDS011;25648;47.808;19.004;2022-09-27T10:13:02;29.95;;;21.52;;
39968;SDS011;25648;47.808;19.004;2022-09-27T10:15:29;29.90;;;22.17;;
39968;SDS011;25648;47.808;19.004;2022-09-27T10:17:55;32.72;;;23.73;;
39968;SDS011;25648;47.808;19.004;2022-09-27T10:20:30;30.15;;;21.95;;
39968;SDS011;25648;47.808;19.004;2022-09-27T10:23:18;39.00;;;26.60;;
39968;SDS011;25648;47.808;19.004;2022-09-27T10:25:55;36.08;;;23.70;;
39968;SDS011;25648;47.808;19.004;2022-09-27T10:28:34;28.55;;;22.05;;
39968;SDS011;25648;47.808;19.004;2022-09-27T10:31:02;30.95;;;22.20;;
39968;SDS011;25648;47.808;19.004;2022-09-27T10:33:30;28.10;;;20.63;;
39968;SDS011;25648;47.808;19.004;2022-09-27T10:35:57;34.10;;;24.00;;
39968;SDS011;25648;47.808;19.004;2022-09-27T10:38:27;28.60;;;21.13;;
39968;SDS011;25648;47.808;19.004;2022-09-27T10:40:54;31.77;;;21.77;;
39968;SDS011;25648;47.808;19.004;2022-09-27T10:43:26;29.17;;;20.40;;
39968;SDS011;25648;47.808;19.004;2022-09-27T10:48:35;30.23;;;22.20;;
39968;SDS011;25648;47.808;19.004;2022-09-27T10:51:04;28.55;;;20.05;;
39968;SDS011;25648;47.808;19.004;2022-09-27T10:53:33;36.67;;;21.50;;
39968;SDS011;25648;47.808;19.004;2022-09-27T10:56:00;30.60;;;21.40;;
39968;SDS011;25648;47.808;19.004;2022-09-27T10:58:30;29.98;;;20.90;;
39968;SDS011;25648;47.808;19.004;2022-09-27T11:01:01;29.02;;;20.95;;
39968;SDS011;25648;47.808;19.004;2022-09-27T11:03:30;33.97;;;22.30;;
39968;SDS011;25648;47.808;19.004;2022-09-27T11:06:01;32.15;;;22.52;;
39968;SDS011;25648;47.808;19.004;2022-09-27T11:08:54;31.95;;;22.23;;
39968;SDS011;25648;47.808;19.004;2022-09-27T11:11:33;31.23;;;21.67;;
39968;SDS011;25648;47.808;19.004;2022-09-27T11:14:00;31.20;;;20.80;;
39968;SDS011;25648;47.808;19.004;2022-09-27T11:16:49;29.27;;;20.92;;
39968;SDS011;25648;47.808;19.004;2022-09-27T11:34:03;32.45;;;22.02;;
39968;SDS011;25648;47.808;19.004;2022-09-27T11:50:36;33.40;;;21.02;;
39968;SDS011;25648;47.808;19.004;2022-09-27T12:07:12;33.70;;;21.92;;
39968;SDS011;25648;47.808;19.004;2022-09-27T12:09:49;33.80;;;22.58;;
39968;SDS011;25648;47.808;19.004;2022-09-27T12:12:19;32.83;;;23.45;;
39968;SDS011;25648;47.808;19.004;2022-09-27T12:14:53;32.75;;;21.52;;
39968;SDS011;25648;47.808;19.004;2022-09-27T12:17:23;35.80;;;21.75;;
39968;SDS011;25648;47.808;19.004;2022-09-27T12:19:52;31.35;;;21.17;;
39968;SDS011;25648;47.808;19.004;2022-09-27T12:24:54;31.95;;;20.75;;
39968;SDS011;25648;47.808;19.004;2022-09-27T12:27:36;31.77;;;21.17;;
39968;SDS011;25648;47.808;19.004;2022-09-27T12:30:23;30.90;;;21.13;;
39968;SDS011;25648;47.808;19.004;2022-09-27T12:35:28;34.05;;;21.55;;
39968;SDS011;25648;47.808;19.004;2022-09-27T12:38:12;29.85;;;19.48;;
39968;SDS011;25648;47.808;19.004;2022-09-27T12:40:44;31.10;;;20.88;;
39968;SDS011;25648;47.808;19.004;2022-09-27T12:51:38;35.00;;;23.27;;
39968;SDS011;25648;47.808;19.004;2022-09-27T13:14:17;39.33;;;23.33;;
39968;SDS011;25648;47.808;19.004;2022-09-27T13:16:45;36.95;;;24.02;;
39968;SDS011;25648;47.808;19.004;2022-09-27T13:22:08;32.35;;;21.95;;
39968;SDS011;25648;47.808;19.004;2022-09-27T13:24:52;32.67;;;21.73;;
39968;SDS011;25648;47.808;19.004;2022-09-27T13:32:36;37.40;;;25.17;;
39968;SDS011;25648;47.808;19.004;2022-09-27T13:37:42;40.08;;;27.02;;
39968;SDS011;25648;47.808;19.004;2022-09-27T13:45:49;39.28;;;26.50;;
39968;SDS011;25648;47.808;19.004;2022-09-27T13:48:38;59.38;;;31.50;;
39968;SDS011;25648;47.808;19.004;2022-09-27T13:51:18;64.47;;;36.38;;
39968;SDS011;25648;47.808;19.004;2022-09-27T13:53:54;15.25;;;10.38;;
39968;SDS011;25648;47.808;19.004;2022-09-27T13:57:15;8.13;;;5.35;;
39968;SDS011;25648;47.808;19.004;2022-09-27T14:01:53;6.97;;;3.88;;
39968;SDS011;25648;47.808;19.004;2022-09-27T14:07:24;7.07;;;4.50;;
39968;SDS011;25648;47.808;19.004;2022-09-27T14:09:55;6.00;;;4.10;;
39968;SDS011;25648;47.808;19.004;2022-09-27T14:12:30;4.60;;;2.90;;
39968;SDS011;25648;47.808;19.004;2022-09-27T14:15:02;6.22;;;4.53;;
39968;SDS011;25648;47.808;19.004;2022-09-27T14:17:29;5.60;;;3.00;;
39968;SDS011;25648;47.808;19.004;2022-09-27T14:19:57;4.10;;;2.50;;
39968;SDS011;25648;47.808;19.004;2022-09-27T14:22:23;6.22;;;3.47;;
39968;SDS011;25648;47.808;19.004;2022-09-27T14:24:50;6.63;;;2.63;;
39968;SDS011;25648;47.808;19.004;2022-09-27T14:32:23;5.90;;;2.75;;
39968;SDS011;25648;47.808;19.004;2022-09-27T14:37:56;5.18;;;2.55;;
39968;SDS011;25648;47.808;19.004;2022-09-27T14:40:24;5.20;;;2.70;;
39968;SDS011;25648;47.808;19.004;2022-09-27T14:42:59;4.45;;;2.60;;
39968;SDS011;25648;47.808;19.004;2022-09-27T14:45:43;4.93;;;2.85;;
39968;SDS011;25648;47.808;19.004;2022-09-27T14:48:22;10.75;;;6.55;;
39968;SDS011;25648;47.808;19.004;2022-09-27T14:53:30;5.50;;;2.20;;
39968;SDS011;25648;47.808;19.004;2022-09-27T14:55:58;4.35;;;2.78;;
39968;SDS011;25648;47.808;19.004;2022-09-27T14:58:26;4.43;;;2.53;;
39968;SDS011;25648;47.808;19.004;2022-09-27T15:00:54;4.03;;;1.90;;
39968;SDS011;25648;47.808;19.004;2022-09-27T15:03:28;12.70;;;10.73;;
39968;SDS011;25648;47.808;19.004;2022-09-27T15:05:56;49.90;;;40.17;;
39968;SDS011;25648;47.808;19.004;2022-09-27T15:08:27;101.85;;;79.90;;
39968;SDS011;25648;47.808;19.004;2022-09-27T15:11:00;200.27;;;179.23;;
39968;SDS011;25648;47.808;19.004;2022-09-27T15:13:29;82.23;;;74.60;;
39968;SDS011;25648;47.808;19.004;2022-09-27T15:15:57;15.57;;;14.10;;
39968;SDS011;25648;47.808;19.004;2022-09-27T15:21:34;10.48;;;9.27;;
39968;SDS011;25648;47.808;19.004;2022-09-27T15:24:01;11.40;;;10.30;;
39968;SDS011;25648;47.808;19.004;2022-09-27T15:26:35;17.30;;;15.77;;
39968;SDS011;25648;47.808;19.004;2022-09-27T15:29:04;9.30;;;8.18;;
39968;SDS011;25648;47.808;19.004;2022-09-27T15:31:31;99.47;;;90.70;;
39968;SDS011;25648;47.808;19.004;2022-09-27T15:33:59;4.13;;;3.45;;
39968;SDS011;25648;47.808;19.004;2022-09-27T15:39:11;14.27;;;12.98;;
39968;SDS011;25648;47.808;19.004;2022-09-27T15:42:24;27.63;;;25.13;;
39968;SDS011;25648;47.808;19.004;2022-09-27T15:44:48;4.63;;;3.28;;
39968;SDS011;25648;47.808;19.004;2022-09-27T15:47:52;10.43;;;9.40;;
39968;SDS011;25648;47.808;19.004;2022-09-27T15:52:53;4.18;;;2.97;;
39968;SDS011;25648;47.808;19.004;2022-09-27T15:55:21;8.05;;;7.18;;
39968;SDS011;25648;47.808;19.004;2022-09-27T16:00:54;4.00;;;2.80;;
39968;SDS011;25648;47.808;19.004;2022-09-27T16:03:21;4.97;;;2.58;;
39968;SDS011;25648;47.808;19.004;2022-09-27T16:05:48;4.38;;;3.65;;
39968;SDS011;25648;47.808;19.004;2022-09-27T16:08:13;4.72;;;3.75;;
39968;SDS011;25648;47.808;19.004;2022-09-27T16:10:40;4.22;;;2.45;;
39968;SDS011;25648;47.808;19.004;2022-09-27T16:13:12;4.60;;;4.10;;
39968;SDS011;25648;47.808;19.004;2022-09-27T16:15:38;4.50;;;4.10;;
39968;SDS011;25648;47.808;19.004;2022-09-27T16:18:04;11.82;;;10.73;;
39968;SDS011;25648;47.808;19.004;2022-09-27T16:20:30;4.18;;;2.90;;
39968;SDS011;25648;47.808;19.004;2022-09-27T16:22:56;5.80;;;4.65;;
39968;SDS011;25648;47.808;19.004;2022-09-27T16:25:22;9.45;;;7.40;;
39968;SDS011;25648;47.808;19.004;2022-09-27T16:27:49;17.67;;;12.82;;
39968;SDS011;25648;47.808;19.004;2022-09-27T16:30:16;11.65;;;9.05;;
39968;SDS011;25648;47.808;19.004;2022-09-27T16:32:43;31.33;;;28.35;;
39968;SDS011;25648;47.808;19.004;2022-09-27T16:35:10;20.38;;;18.30;;
39968;SDS011;25648;47.808;19.004;2022-09-27T16:37:37;6.85;;;5.95;;
39968;SDS011;25648;47.808;19.004;2022-09-27T16:40:04;8.60;;;7.80;;
39968;SDS011;25648;47.808;19.004;2022-09-27T16:42:30;5.15;;;4.63;;
39968;SDS011;25648;47.808;19.004;2022-09-27T16:44:56;3.70;;;2.50;;
39968;SDS011;25648;47.808;19.004;2022-09-27T16:47:22;4.13;;;3.40;;
39968;SDS011;25648;47.808;19.004;2022-09-27T16:49:48;5.50;;;3.92;;
39968;SDS011;25648;47.808;19.004;2022-09-27T16:52:31;4.95;;;3.63;;
39968;SDS011;25648;47.808;19.004;2022-09-27T16:55:10;3.90;;;2.20;;
39968;SDS011;25648;47.808;19.004;2022-09-27T16:57:42;3.90;;;2.30;;
39968;SDS011;25648;47.808;19.004;2022-09-27T17:00:07;5.30;;;4.10;;
39968;SDS011;25648;47.808;19.004;2022-09-27T17:02:33;8.60;;;5.50;;
39968;SDS011;25648;47.808;19.004;2022-09-27T17:05:00;14.40;;;10.15;;
39968;SDS011;25648;47.808;19.004;2022-09-27T17:07:26;4.82;;;2.90;;
39968;SDS011;25648;47.808;19.004;2022-09-27T17:09:51;21.13;;;19.05;;
39968;SDS011;25648;47.808;19.004;2022-09-27T17:12:18;10.48;;;6.35;;
39968;SDS011;25648;47.808;19.004;2022-09-27T17:14:43;14.05;;;8.95;;
39968;SDS011;25648;47.808;19.004;2022-09-27T17:17:09;6.43;;;4.72;;
39968;SDS011;25648;47.808;19.004;2022-09-27T17:19:35;5.05;;;2.25;;
39968;SDS011;25648;47.808;19.004;2022-09-27T17:22:03;8.77;;;3.53;;
39968;SDS011;25648;47.808;19.004;2022-09-27T17:24:31;8.73;;;5.20;;
39968;SDS011;25648;47.808;19.004;2022-09-27T17:26:57;5.68;;;3.70;;
39968;SDS011;25648;47.808;19.004;2022-09-27T17:29:22;15.88;;;6.40;;
39968;SDS011;25648;47.808;19.004;2022-09-27T17:31:49;6.45;;;2.78;;
39968;SDS011;25648;47.808;19.004;2022-09-27T17:34:14;3.72;;;2.13;;
39968;SDS011;25648;47.808;19.004;2022-09-27T17:36:41;5.43;;;2.67;;
39968;SDS011;25648;47.808;19.004;2022-09-27T17:39:12;14.05;;;7.32;;
39968;SDS011;25648;47.808;19.004;2022-09-27T17:41:39;16.17;;;8.68;;
39968;SDS011;25648;47.808;19.004;2022-09-27T17:44:06;17.95;;;15.63;;
39968;SDS011;25648;47.808;19.004;2022-09-27T17:46:35;15.55;;;11.90;;
39968;SDS011;25648;47.808;19.004;2022-09-27T17:49:02;16.60;;;8.63;;
39968;SDS011;25648;47.808;19.004;2022-09-27T17:51:47;13.82;;;8.05;;